sensor_id;sensor_type;location;lat;lon;timestamp;pressure;altitude;pressure_sealevel;temperature
66180;BMP280;52986;44.028;20.466;2023-12-22T00:02:07;96273.31;;;6.23
66180;BMP280;52986;44.028;20.466;2023-12-22T00:04:32;96273.19;;;6.17
66180;BMP280;52986;44.028;20.466;2023-12-22T00:06:58;96255.03;;;6.15
66180;BMP280;52986;44.028;20.466;2023-12-22T00:09:23;96260.91;;;6.20
66180;BMP280;52986;44.028;20.466;2023-12-22T00:11:49;96262.97;;;6.25
66180;BMP280;52986;44.028;20.466;2023-12-22T00:14:14;96258.81;;;6.33
66180;BMP280;52986;44.028;20.466;2023-12-22T00:16:40;96254.50;;;6.44
66180;BMP280;52986;44.028;20.466;2023-12-22T00:19:05;96261.53;;;6.48
66180;BMP280;52986;44.028;20.466;2023-12-22T00:21:31;96259.19;;;6.50
66180;BMP280;52986;44.028;20.466;2023-12-22T00:23:57;96251.78;;;6.54
66180;BMP280;52986;44.028;20.466;2023-12-22T00:26:22;96259.34;;;6.55
66180;BMP280;52986;44.028;20.466;2023-12-22T00:28:48;96252.53;;;6.54
66180;BMP280;52986;44.028;20.466;2023-12-22T00:31:14;96243.38;;;6.55
66180;BMP280;52986;44.028;20.466;2023-12-22T00:33:39;96240.66;;;6.64
66180;BMP280;52986;44.028;20.466;2023-12-22T00:36:05;96235.19;;;6.68
66180;BMP280;52986;44.028;20.466;2023-12-22T00:38:30;96233.25;;;6.68
66180;BMP280;52986;44.028;20.466;2023-12-22T00:40:56;96229.69;;;6.71
66180;BMP280;52986;44.028;20.466;2023-12-22T00:43:21;96220.50;;;6.72
66180;BMP280;52986;44.028;20.466;2023-12-22T00:45:47;96212.00;;;6.68
66180;BMP280;52986;44.028;20.466;2023-12-22T00:48:12;96221.44;;;6.69
66180;BMP280;52986;44.028;20.466;2023-12-22T00:50:38;96227.22;;;6.68
66180;BMP280;52986;44.028;20.466;2023-12-22T00:53:03;96219.00;;;6.57
66180;BMP280;52986;44.028;20.466;2023-12-22T00:55:29;96228.75;;;6.51
66180;BMP280;52986;44.028;20.466;2023-12-22T00:57:54;96215.59;;;6.47
66180;BMP280;52986;44.028;20.466;2023-12-22T01:00:20;96218.16;;;6.41
66180;BMP280;52986;44.028;20.466;2023-12-22T01:02:45;96211.69;;;6.33
66180;BMP280;52986;44.028;20.466;2023-12-22T01:05:11;96218.06;;;6.27
66180;BMP280;52986;44.028;20.466;2023-12-22T01:07:36;96208.63;;;6.26
66180;BMP280;52986;44.028;20.466;2023-12-22T01:10:02;96203.59;;;6.28
66180;BMP280;52986;44.028;20.466;2023-12-22T01:12:29;96189.13;;;6.29
66180;BMP280;52986;44.028;20.466;2023-12-22T01:14:56;96187.06;;;6.24
66180;BMP280;52986;44.028;20.466;2023-12-22T01:17:22;96184.72;;;6.26
66180;BMP280;52986;44.028;20.466;2023-12-22T01:19:47;96176.28;;;6.27
66180;BMP280;52986;44.028;20.466;2023-12-22T01:22:13;96172.81;;;6.36
66180;BMP280;52986;44.028;20.466;2023-12-22T01:24:38;96174.44;;;6.42
66180;BMP280;52986;44.028;20.466;2023-12-22T01:27:08;96168.69;;;6.44
66180;BMP280;52986;44.028;20.466;2023-12-22T01:29:33;96161.13;;;6.42
66180;BMP280;52986;44.028;20.466;2023-12-22T01:31:59;96154.00;;;6.49
66180;BMP280;52986;44.028;20.466;2023-12-22T01:34:24;96145.13;;;6.52
66180;BMP280;52986;44.028;20.466;2023-12-22T01:36:49;96145.41;;;6.54
66180;BMP280;52986;44.028;20.466;2023-12-22T01:39:15;96156.22;;;6.50
66180;BMP280;52986;44.028;20.466;2023-12-22T01:41:41;96149.63;;;6.46
66180;BMP280;52986;44.028;20.466;2023-12-22T01:44:06;96141.91;;;6.48
66180;BMP280;52986;44.028;20.466;2023-12-22T01:46:32;96145.03;;;6.46
66180;BMP280;52986;44.028;20.466;2023-12-22T01:49:00;96149.00;;;6.51
66180;BMP280;52986;44.028;20.466;2023-12-22T01:51:29;96135.81;;;6.56
66180;BMP280;52986;44.028;20.466;2023-12-22T01:53:56;96136.66;;;6.62
66180;BMP280;52986;44.028;20.466;2023-12-22T01:56:22;96130.16;;;6.63
66180;BMP280;52986;44.028;20.466;2023-12-22T01:58:50;96136.31;;;6.69
66180;BMP280;52986;44.028;20.466;2023-12-22T02:01:19;96139.81;;;6.76
66180;BMP280;52986;44.028;20.466;2023-12-22T02:03:48;96140.31;;;6.89
66180;BMP280;52986;44.028;20.466;2023-12-22T02:06:17;96145.59;;;6.98
66180;BMP280;52986;44.028;20.466;2023-12-22T02:08:46;96141.81;;;7.05
66180;BMP280;52986;44.028;20.466;2023-12-22T02:11:11;96145.44;;;7.16
66180;BMP280;52986;44.028;20.466;2023-12-22T02:13:37;96139.72;;;7.23
66180;BMP280;52986;44.028;20.466;2023-12-22T02:16:08;96141.47;;;7.26
66180;BMP280;52986;44.028;20.466;2023-12-22T02:18:39;96142.84;;;7.37
66180;BMP280;52986;44.028;20.466;2023-12-22T02:21:07;96134.97;;;7.42
66180;BMP280;52986;44.028;20.466;2023-12-22T02:23:33;96131.66;;;7.62
66180;BMP280;52986;44.028;20.466;2023-12-22T02:26:27;96138.06;;;7.85
66180;BMP280;52986;44.028;20.466;2023-12-22T02:28:50;96130.50;;;8.13
66180;BMP280;52986;44.028;20.466;2023-12-22T02:31:21;96133.06;;;8.63
66180;BMP280;52986;44.028;20.466;2023-12-22T02:33:48;96141.38;;;9.17
66180;BMP280;52986;44.028;20.466;2023-12-22T02:36:17;96137.19;;;9.36
66180;BMP280;52986;44.028;20.466;2023-12-22T02:38:43;96141.91;;;9.47
66180;BMP280;52986;44.028;20.466;2023-12-22T02:41:10;96125.28;;;9.68
66180;BMP280;52986;44.028;20.466;2023-12-22T02:43:36;96114.28;;;9.98
66180;BMP280;52986;44.028;20.466;2023-12-22T02:46:01;96118.44;;;10.04
66180;BMP280;52986;44.028;20.466;2023-12-22T02:48:27;96109.00;;;10.09
66180;BMP280;52986;44.028;20.466;2023-12-22T02:50:52;96119.19;;;10.05
66180;BMP280;52986;44.028;20.466;2023-12-22T02:53:18;96109.97;;;10.06
66180;BMP280;52986;44.028;20.466;2023-12-22T02:55:43;96112.44;;;10.15
66180;BMP280;52986;44.028;20.466;2023-12-22T02:58:09;96111.03;;;10.25
66180;BMP280;52986;44.028;20.466;2023-12-22T03:00:34;96120.28;;;10.24
66180;BMP280;52986;44.028;20.466;2023-12-22T03:02:59;96121.25;;;10.21
66180;BMP280;52986;44.028;20.466;2023-12-22T03:05:25;96117.84;;;10.26
66180;BMP280;52986;44.028;20.466;2023-12-22T03:07:50;96125.91;;;10.32
66180;BMP280;52986;44.028;20.466;2023-12-22T03:10:16;96126.66;;;10.38
66180;BMP280;52986;44.028;20.466;2023-12-22T03:12:41;96121.81;;;10.37
66180;BMP280;52986;44.028;20.466;2023-12-22T03:15:07;96112.81;;;10.45
66180;BMP280;52986;44.028;20.466;2023-12-22T03:17:33;96124.47;;;10.37
66180;BMP280;52986;44.028;20.466;2023-12-22T03:19:59;96129.56;;;10.34
66180;BMP280;52986;44.028;20.466;2023-12-22T03:22:24;96124.94;;;10.35
66180;BMP280;52986;44.028;20.466;2023-12-22T03:24:49;96131.03;;;10.41
66180;BMP280;52986;44.028;20.466;2023-12-22T03:27:15;96137.66;;;10.51
66180;BMP280;52986;44.028;20.466;2023-12-22T03:29:43;96141.31;;;10.48
66180;BMP280;52986;44.028;20.466;2023-12-22T03:32:09;96147.09;;;10.47
66180;BMP280;52986;44.028;20.466;2023-12-22T03:34:34;96161.19;;;10.42
66180;BMP280;52986;44.028;20.466;2023-12-22T03:37:00;96179.69;;;10.40
66180;BMP280;52986;44.028;20.466;2023-12-22T03:39:25;96181.91;;;10.47
66180;BMP280;52986;44.028;20.466;2023-12-22T03:41:51;96168.31;;;10.50
66180;BMP280;52986;44.028;20.466;2023-12-22T03:44:16;96173.84;;;10.41
66180;BMP280;52986;44.028;20.466;2023-12-22T03:46:42;96179.19;;;10.41
66180;BMP280;52986;44.028;20.466;2023-12-22T03:49:07;96182.63;;;10.42
66180;BMP280;52986;44.028;20.466;2023-12-22T03:51:33;96182.13;;;10.38
66180;BMP280;52986;44.028;20.466;2023-12-22T03:53:58;96181.81;;;10.30
66180;BMP280;52986;44.028;20.466;2023-12-22T03:56:24;96186.88;;;10.22
66180;BMP280;52986;44.028;20.466;2023-12-22T03:58:49;96197.34;;;10.20
66180;BMP280;52986;44.028;20.466;2023-12-22T04:01:15;96201.44;;;10.16
66180;BMP280;52986;44.028;20.466;2023-12-22T04:03:40;96213.56;;;10.11
66180;BMP280;52986;44.028;20.466;2023-12-22T04:06:06;96207.81;;;10.18
66180;BMP280;52986;44.028;20.466;2023-12-22T04:08:31;96196.06;;;10.10
66180;BMP280;52986;44.028;20.466;2023-12-22T04:10:57;96201.19;;;10.14
66180;BMP280;52986;44.028;20.466;2023-12-22T04:13:22;96187.59;;;10.17
66180;BMP280;52986;44.028;20.466;2023-12-22T04:15:48;96194.13;;;10.11
66180;BMP280;52986;44.028;20.466;2023-12-22T04:18:13;96182.91;;;10.07
66180;BMP280;52986;44.028;20.466;2023-12-22T04:20:39;96179.00;;;10.02
66180;BMP280;52986;44.028;20.466;2023-12-22T04:23:04;96183.78;;;9.92
66180;BMP280;52986;44.028;20.466;2023-12-22T04:25:30;96191.47;;;9.79
66180;BMP280;52986;44.028;20.466;2023-12-22T04:27:55;96206.53;;;9.77
66180;BMP280;52986;44.028;20.466;2023-12-22T04:30:21;96194.78;;;9.68
66180;BMP280;52986;44.028;20.466;2023-12-22T04:32:46;96207.91;;;9.66
66180;BMP280;52986;44.028;20.466;2023-12-22T04:35:11;96199.59;;;9.59
66180;BMP280;52986;44.028;20.466;2023-12-22T04:37:37;96200.78;;;9.58
66180;BMP280;52986;44.028;20.466;2023-12-22T04:40:02;96183.47;;;9.53
66180;BMP280;52986;44.028;20.466;2023-12-22T04:42:28;96211.16;;;9.50
66180;BMP280;52986;44.028;20.466;2023-12-22T04:44:54;96221.59;;;9.48
66180;BMP280;52986;44.028;20.466;2023-12-22T04:47:19;96239.75;;;9.44
66180;BMP280;52986;44.028;20.466;2023-12-22T04:49:45;96255.66;;;9.33
66180;BMP280;52986;44.028;20.466;2023-12-22T04:52:11;96270.63;;;9.25
66180;BMP280;52986;44.028;20.466;2023-12-22T04:54:37;96271.22;;;9.14
66180;BMP280;52986;44.028;20.466;2023-12-22T04:57:03;96277.69;;;9.07
66180;BMP280;52986;44.028;20.466;2023-12-22T04:59:29;96284.25;;;9.06
66180;BMP280;52986;44.028;20.466;2023-12-22T05:01:54;96290.78;;;9.05
66180;BMP280;52986;44.028;20.466;2023-12-22T05:04:20;96301.81;;;8.93
66180;BMP280;52986;44.028;20.466;2023-12-22T05:06:46;96298.78;;;8.85
66180;BMP280;52986;44.028;20.466;2023-12-22T05:09:12;96310.00;;;8.89
66180;BMP280;52986;44.028;20.466;2023-12-22T05:11:37;96309.81;;;8.93
66180;BMP280;52986;44.028;20.466;2023-12-22T05:14:03;96319.22;;;8.88
66180;BMP280;52986;44.028;20.466;2023-12-22T05:16:29;96317.94;;;8.84
66180;BMP280;52986;44.028;20.466;2023-12-22T05:18:59;96318.88;;;8.80
66180;BMP280;52986;44.028;20.466;2023-12-22T05:21:25;96308.59;;;8.73
66180;BMP280;52986;44.028;20.466;2023-12-22T05:23:50;96309.50;;;8.70
66180;BMP280;52986;44.028;20.466;2023-12-22T05:26:17;96315.03;;;8.67
66180;BMP280;52986;44.028;20.466;2023-12-22T05:28:43;96318.38;;;8.62
66180;BMP280;52986;44.028;20.466;2023-12-22T05:31:09;96320.19;;;8.56
66180;BMP280;52986;44.028;20.466;2023-12-22T05:33:34;96317.72;;;8.52
66180;BMP280;52986;44.028;20.466;2023-12-22T05:36:00;96325.16;;;8.48
66180;BMP280;52986;44.028;20.466;2023-12-22T05:38:25;96322.78;;;8.50
66180;BMP280;52986;44.028;20.466;2023-12-22T05:40:50;96313.03;;;8.47
66180;BMP280;52986;44.028;20.466;2023-12-22T05:43:16;96310.34;;;8.47
66180;BMP280;52986;44.028;20.466;2023-12-22T05:45:41;96315.06;;;8.52
66180;BMP280;52986;44.028;20.466;2023-12-22T05:48:07;96311.09;;;8.47
66180;BMP280;52986;44.028;20.466;2023-12-22T05:50:32;96314.16;;;8.40
66180;BMP280;52986;44.028;20.466;2023-12-22T05:52:58;96310.75;;;8.40
66180;BMP280;52986;44.028;20.466;2023-12-22T05:55:23;96310.91;;;8.36
66180;BMP280;52986;44.028;20.466;2023-12-22T05:57:49;96314.34;;;8.22
66180;BMP280;52986;44.028;20.466;2023-12-22T06:00:15;96322.91;;;8.11
66180;BMP280;52986;44.028;20.466;2023-12-22T06:02:40;96335.78;;;8.13
66180;BMP280;52986;44.028;20.466;2023-12-22T06:05:06;96345.72;;;8.12
66180;BMP280;52986;44.028;20.466;2023-12-22T06:07:32;96341.38;;;8.15
66180;BMP280;52986;44.028;20.466;2023-12-22T06:09:58;96337.50;;;8.16
66180;BMP280;52986;44.028;20.466;2023-12-22T06:12:23;96334.69;;;8.19
66180;BMP280;52986;44.028;20.466;2023-12-22T06:14:49;96343.41;;;8.20
66180;BMP280;52986;44.028;20.466;2023-12-22T06:17:14;96335.88;;;8.18
66180;BMP280;52986;44.028;20.466;2023-12-22T06:19:40;96347.81;;;8.23
66180;BMP280;52986;44.028;20.466;2023-12-22T06:22:05;96361.81;;;8.33
66180;BMP280;52986;44.028;20.466;2023-12-22T06:24:31;96372.94;;;8.31
66180;BMP280;52986;44.028;20.466;2023-12-22T06:26:56;96377.34;;;8.34
66180;BMP280;52986;44.028;20.466;2023-12-22T06:29:22;96380.84;;;8.40
66180;BMP280;52986;44.028;20.466;2023-12-22T06:31:48;96389.75;;;8.37
66180;BMP280;52986;44.028;20.466;2023-12-22T06:34:19;96393.44;;;8.40
66180;BMP280;52986;44.028;20.466;2023-12-22T06:36:45;96415.50;;;8.40
66180;BMP280;52986;44.028;20.466;2023-12-22T06:39:10;96411.94;;;8.43
66180;BMP280;52986;44.028;20.466;2023-12-22T06:41:36;96419.97;;;8.43
66180;BMP280;52986;44.028;20.466;2023-12-22T06:44:01;96429.69;;;8.46
66180;BMP280;52986;44.028;20.466;2023-12-22T06:46:27;96439.06;;;8.42
66180;BMP280;52986;44.028;20.466;2023-12-22T06:48:55;96431.72;;;8.37
66180;BMP280;52986;44.028;20.466;2023-12-22T06:51:28;96448.00;;;8.39
66180;BMP280;52986;44.028;20.466;2023-12-22T06:53:56;96452.13;;;8.40
66180;BMP280;52986;44.028;20.466;2023-12-22T06:56:24;96459.97;;;8.43
66180;BMP280;52986;44.028;20.466;2023-12-22T06:58:51;96457.31;;;8.43
66180;BMP280;52986;44.028;20.466;2023-12-22T07:01:27;96465.56;;;8.45
66180;BMP280;52986;44.028;20.466;2023-12-22T07:03:52;96479.63;;;8.46
66180;BMP280;52986;44.028;20.466;2023-12-22T07:06:19;96484.72;;;8.44
66180;BMP280;52986;44.028;20.466;2023-12-22T07:08:45;96483.97;;;8.43
66180;BMP280;52986;44.028;20.466;2023-12-22T07:11:20;96481.94;;;8.38
66180;BMP280;52986;44.028;20.466;2023-12-22T07:13:45;96485.97;;;8.34
66180;BMP280;52986;44.028;20.466;2023-12-22T07:16:11;96486.13;;;8.30
66180;BMP280;52986;44.028;20.466;2023-12-22T07:18:37;96482.72;;;8.30
66180;BMP280;52986;44.028;20.466;2023-12-22T07:21:03;96492.66;;;8.29
66180;BMP280;52986;44.028;20.466;2023-12-22T07:23:28;96491.78;;;8.32
66180;BMP280;52986;44.028;20.466;2023-12-22T07:25:54;96492.22;;;8.31
66180;BMP280;52986;44.028;20.466;2023-12-22T07:28:19;96489.09;;;8.32
66180;BMP280;52986;44.028;20.466;2023-12-22T07:30:45;96497.84;;;8.33
66180;BMP280;52986;44.028;20.466;2023-12-22T07:33:10;96496.00;;;8.39
66180;BMP280;52986;44.028;20.466;2023-12-22T07:35:36;96481.84;;;8.47
66180;BMP280;52986;44.028;20.466;2023-12-22T07:38:01;96473.50;;;8.55
66180;BMP280;52986;44.028;20.466;2023-12-22T07:40:29;96475.69;;;8.56
66180;BMP280;52986;44.028;20.466;2023-12-22T07:42:56;96473.75;;;8.57
66180;BMP280;52986;44.028;20.466;2023-12-22T07:45:22;96488.56;;;8.58
66180;BMP280;52986;44.028;20.466;2023-12-22T07:47:47;96490.03;;;8.59
66180;BMP280;52986;44.028;20.466;2023-12-22T07:50:12;96486.91;;;8.60
66180;BMP280;52986;44.028;20.466;2023-12-22T07:52:38;96473.22;;;8.67
66180;BMP280;52986;44.028;20.466;2023-12-22T07:55:08;96481.78;;;8.71
66180;BMP280;52986;44.028;20.466;2023-12-22T07:57:37;96472.97;;;8.80
66180;BMP280;52986;44.028;20.466;2023-12-22T08:00:03;96472.56;;;8.87
66180;BMP280;52986;44.028;20.466;2023-12-22T08:02:29;96473.31;;;8.88
66180;BMP280;52986;44.028;20.466;2023-12-22T08:04:55;96474.50;;;8.87
66180;BMP280;52986;44.028;20.466;2023-12-22T08:07:20;96459.34;;;8.93
66180;BMP280;52986;44.028;20.466;2023-12-22T08:09:46;96445.47;;;9.09
66180;BMP280;52986;44.028;20.466;2023-12-22T08:12:11;96451.06;;;9.26
66180;BMP280;52986;44.028;20.466;2023-12-22T08:14:37;96481.13;;;9.56
66180;BMP280;52986;44.028;20.466;2023-12-22T08:17:02;96505.81;;;10.06
66180;BMP280;52986;44.028;20.466;2023-12-22T08:19:28;96522.69;;;11.16
66180;BMP280;52986;44.028;20.466;2023-12-22T08:21:53;96523.94;;;12.17
66180;BMP280;52986;44.028;20.466;2023-12-22T08:24:21;96526.19;;;12.24
66180;BMP280;52986;44.028;20.466;2023-12-22T08:26:47;96491.00;;;11.51
66180;BMP280;52986;44.028;20.466;2023-12-22T08:29:13;96477.31;;;10.75
66180;BMP280;52986;44.028;20.466;2023-12-22T08:31:39;96476.69;;;10.34
66180;BMP280;52986;44.028;20.466;2023-12-22T08:34:04;96484.50;;;9.91
66180;BMP280;52986;44.028;20.466;2023-12-22T08:36:31;96480.53;;;9.66
66180;BMP280;52986;44.028;20.466;2023-12-22T08:38:56;96477.09;;;9.46
66180;BMP280;52986;44.028;20.466;2023-12-22T08:41:22;96464.88;;;9.24
66180;BMP280;52986;44.028;20.466;2023-12-22T08:43:47;96463.00;;;9.10
66180;BMP280;52986;44.028;20.466;2023-12-22T08:46:13;96462.25;;;8.95
66180;BMP280;52986;44.028;20.466;2023-12-22T08:48:38;96464.28;;;8.85
66180;BMP280;52986;44.028;20.466;2023-12-22T08:51:04;96474.88;;;8.94
66180;BMP280;52986;44.028;20.466;2023-12-22T08:53:30;96479.50;;;8.94
66180;BMP280;52986;44.028;20.466;2023-12-22T08:55:59;96486.28;;;8.95
66180;BMP280;52986;44.028;20.466;2023-12-22T08:58:26;96475.25;;;9.02
66180;BMP280;52986;44.028;20.466;2023-12-22T09:00:51;96479.19;;;9.06
66180;BMP280;52986;44.028;20.466;2023-12-22T09:03:17;96482.13;;;9.08
66180;BMP280;52986;44.028;20.466;2023-12-22T09:05:42;96483.44;;;9.13
66180;BMP280;52986;44.028;20.466;2023-12-22T09:08:07;96483.75;;;9.35
66180;BMP280;52986;44.028;20.466;2023-12-22T09:10:33;96489.03;;;9.65
66180;BMP280;52986;44.028;20.466;2023-12-22T09:12:58;96494.38;;;10.06
66180;BMP280;52986;44.028;20.466;2023-12-22T09:15:25;96514.16;;;10.54
66180;BMP280;52986;44.028;20.466;2023-12-22T09:17:51;96521.22;;;11.15
66180;BMP280;52986;44.028;20.466;2023-12-22T09:20:18;96524.03;;;11.80
66180;BMP280;52986;44.028;20.466;2023-12-22T09:22:43;96526.69;;;12.39
66180;BMP280;52986;44.028;20.466;2023-12-22T09:25:09;96514.28;;;12.87
66180;BMP280;52986;44.028;20.466;2023-12-22T09:27:34;96504.78;;;13.02
66180;BMP280;52986;44.028;20.466;2023-12-22T09:30:00;96489.88;;;12.73
66180;BMP280;52986;44.028;20.466;2023-12-22T09:32:25;96485.34;;;11.98
66180;BMP280;52986;44.028;20.466;2023-12-22T09:34:52;96479.75;;;11.47
66180;BMP280;52986;44.028;20.466;2023-12-22T09:37:17;96481.75;;;11.10
66180;BMP280;52986;44.028;20.466;2023-12-22T09:39:43;96494.59;;;10.74
66180;BMP280;52986;44.028;20.466;2023-12-22T09:42:08;96498.97;;;10.46
66180;BMP280;52986;44.028;20.466;2023-12-22T09:44:36;96510.91;;;10.24
66180;BMP280;52986;44.028;20.466;2023-12-22T09:47:04;96504.41;;;10.11
66180;BMP280;52986;44.028;20.466;2023-12-22T09:49:31;96510.03;;;9.92
66180;BMP280;52986;44.028;20.466;2023-12-22T09:51:57;96517.25;;;9.86
66180;BMP280;52986;44.028;20.466;2023-12-22T09:54:23;96519.03;;;9.75
66180;BMP280;52986;44.028;20.466;2023-12-22T09:56:50;96526.16;;;9.78
66180;BMP280;52986;44.028;20.466;2023-12-22T09:59:17;96529.63;;;9.69
66180;BMP280;52986;44.028;20.466;2023-12-22T10:01:44;96522.75;;;9.62
66180;BMP280;52986;44.028;20.466;2023-12-22T10:04:12;96507.44;;;9.63
66180;BMP280;52986;44.028;20.466;2023-12-22T10:06:37;96496.41;;;9.55
66180;BMP280;52986;44.028;20.466;2023-12-22T10:09:04;96488.81;;;9.68
66180;BMP280;52986;44.028;20.466;2023-12-22T10:11:32;96481.81;;;9.71
66180;BMP280;52986;44.028;20.466;2023-12-22T10:13:59;96468.38;;;9.65
66180;BMP280;52986;44.028;20.466;2023-12-22T10:16:24;96457.13;;;9.61
66180;BMP280;52986;44.028;20.466;2023-12-22T10:18:50;96467.09;;;9.61
66180;BMP280;52986;44.028;20.466;2023-12-22T10:21:16;96466.16;;;9.64
66180;BMP280;52986;44.028;20.466;2023-12-22T10:23:42;96461.16;;;9.71
66180;BMP280;52986;44.028;20.466;2023-12-22T10:26:07;96460.94;;;9.95
66180;BMP280;52986;44.028;20.466;2023-12-22T10:28:35;96464.22;;;10.25
66180;BMP280;52986;44.028;20.466;2023-12-22T10:31:02;96479.31;;;10.28
66180;BMP280;52986;44.028;20.466;2023-12-22T10:33:32;96468.19;;;10.36
66180;BMP280;52986;44.028;20.466;2023-12-22T10:36:01;96463.53;;;10.30
66180;BMP280;52986;44.028;20.466;2023-12-22T10:38:32;96464.63;;;10.18
66180;BMP280;52986;44.028;20.466;2023-12-22T10:40:58;96465.03;;;10.11
66180;BMP280;52986;44.028;20.466;2023-12-22T10:43:23;96468.75;;;9.99
66180;BMP280;52986;44.028;20.466;2023-12-22T10:45:52;96470.38;;;9.91
66180;BMP280;52986;44.028;20.466;2023-12-22T10:48:17;96469.13;;;9.86
66180;BMP280;52986;44.028;20.466;2023-12-22T10:50:43;96474.00;;;9.88
66180;BMP280;52986;44.028;20.466;2023-12-22T10:53:11;96469.47;;;9.94
66180;BMP280;52986;44.028;20.466;2023-12-22T10:55:36;96465.28;;;9.93
66180;BMP280;52986;44.028;20.466;2023-12-22T10:58:05;96469.69;;;9.96
66180;BMP280;52986;44.028;20.466;2023-12-22T11:00:32;96467.53;;;9.94
66180;BMP280;52986;44.028;20.466;2023-12-22T11:03:01;96468.44;;;9.91
66180;BMP280;52986;44.028;20.466;2023-12-22T11:05:29;96480.16;;;9.94
66180;BMP280;52986;44.028;20.466;2023-12-22T11:07:59;96476.94;;;9.90
66180;BMP280;52986;44.028;20.466;2023-12-22T11:10:27;96471.44;;;9.79
66180;BMP280;52986;44.028;20.466;2023-12-22T11:12:57;96488.81;;;9.68
66180;BMP280;52986;44.028;20.466;2023-12-22T11:15:24;96485.41;;;9.68
66180;BMP280;52986;44.028;20.466;2023-12-22T11:17:51;96506.06;;;9.67
66180;BMP280;52986;44.028;20.466;2023-12-22T11:20:17;96502.81;;;9.78
66180;BMP280;52986;44.028;20.466;2023-12-22T11:22:44;96511.06;;;9.95
66180;BMP280;52986;44.028;20.466;2023-12-22T11:25:10;96499.28;;;10.07
66180;BMP280;52986;44.028;20.466;2023-12-22T11:27:37;96507.19;;;10.22
66180;BMP280;52986;44.028;20.466;2023-12-22T11:30:04;96514.63;;;10.32
66180;BMP280;52986;44.028;20.466;2023-12-22T11:32:33;96509.00;;;10.30
66180;BMP280;52986;44.028;20.466;2023-12-22T11:34:59;96504.34;;;10.25
66180;BMP280;52986;44.028;20.466;2023-12-22T11:37:25;96491.03;;;10.11
66180;BMP280;52986;44.028;20.466;2023-12-22T11:39:51;96489.78;;;10.06
66180;BMP280;52986;44.028;20.466;2023-12-22T11:42:24;96493.56;;;9.99
66180;BMP280;52986;44.028;20.466;2023-12-22T11:44:50;96495.00;;;9.95
66180;BMP280;52986;44.028;20.466;2023-12-22T11:47:15;96491.31;;;9.92
66180;BMP280;52986;44.028;20.466;2023-12-22T11:49:41;96491.78;;;9.91
66180;BMP280;52986;44.028;20.466;2023-12-22T11:52:11;96493.66;;;9.85
66180;BMP280;52986;44.028;20.466;2023-12-22T11:54:47;96504.63;;;9.87
66180;BMP280;52986;44.028;20.466;2023-12-22T12:00:02;96509.34;;;9.97
66180;BMP280;52986;44.028;20.466;2023-12-22T12:02:33;96507.97;;;10.02
66180;BMP280;52986;44.028;20.466;2023-12-22T12:04:59;96515.59;;;10.09
66180;BMP280;52986;44.028;20.466;2023-12-22T12:08:05;96503.00;;;10.15
66180;BMP280;52986;44.028;20.466;2023-12-22T12:13:11;96477.53;;;10.46
66180;BMP280;52986;44.028;20.466;2023-12-22T12:15:38;96460.09;;;10.56
66180;BMP280;52986;44.028;20.466;2023-12-22T12:18:05;96469.00;;;10.68
66180;BMP280;52986;44.028;20.466;2023-12-22T12:20:32;96470.31;;;10.83
66180;BMP280;52986;44.028;20.466;2023-12-22T12:22:57;96460.81;;;10.82
66180;BMP280;52986;44.028;20.466;2023-12-22T12:25:23;96452.75;;;10.77
66180;BMP280;52986;44.028;20.466;2023-12-22T12:28:02;96471.38;;;10.65
66180;BMP280;52986;44.028;20.466;2023-12-22T12:30:28;96487.13;;;10.58
66180;BMP280;52986;44.028;20.466;2023-12-22T12:32:54;96483.25;;;10.59
66180;BMP280;52986;44.028;20.466;2023-12-22T12:35:20;96503.69;;;10.56
66180;BMP280;52986;44.028;20.466;2023-12-22T12:37:47;96516.75;;;10.49
66180;BMP280;52986;44.028;20.466;2023-12-22T12:40:15;96507.47;;;10.44
66180;BMP280;52986;44.028;20.466;2023-12-22T12:42:44;96492.13;;;10.45
66180;BMP280;52986;44.028;20.466;2023-12-22T12:45:10;96486.44;;;10.63
66180;BMP280;52986;44.028;20.466;2023-12-22T12:47:35;96492.88;;;10.71
66180;BMP280;52986;44.028;20.466;2023-12-22T12:50:02;96496.03;;;10.70
66180;BMP280;52986;44.028;20.466;2023-12-22T12:52:28;96497.59;;;10.56
66180;BMP280;52986;44.028;20.466;2023-12-22T12:54:54;96499.63;;;10.41
66180;BMP280;52986;44.028;20.466;2023-12-22T12:57:20;96489.50;;;10.24
66180;BMP280;52986;44.028;20.466;2023-12-22T12:59:50;96483.75;;;10.11
66180;BMP280;52986;44.028;20.466;2023-12-22T13:02:16;96496.81;;;10.03
66180;BMP280;52986;44.028;20.466;2023-12-22T13:04:42;96502.75;;;9.93
66180;BMP280;52986;44.028;20.466;2023-12-22T13:07:08;96511.22;;;9.91
66180;BMP280;52986;44.028;20.466;2023-12-22T13:09:35;96524.13;;;9.93
66180;BMP280;52986;44.028;20.466;2023-12-22T13:12:01;96531.22;;;9.96
66180;BMP280;52986;44.028;20.466;2023-12-22T13:14:28;96532.63;;;9.91
66180;BMP280;52986;44.028;20.466;2023-12-22T13:16:55;96536.84;;;9.98
66180;BMP280;52986;44.028;20.466;2023-12-22T13:19:25;96530.09;;;10.02
66180;BMP280;52986;44.028;20.466;2023-12-22T13:21:52;96531.78;;;10.00
66180;BMP280;52986;44.028;20.466;2023-12-22T13:24:18;96527.16;;;10.00
66180;BMP280;52986;44.028;20.466;2023-12-22T13:26:44;96540.66;;;9.91
66180;BMP280;52986;44.028;20.466;2023-12-22T13:29:11;96527.59;;;9.79
66180;BMP280;52986;44.028;20.466;2023-12-22T13:31:38;96519.97;;;9.71
66180;BMP280;52986;44.028;20.466;2023-12-22T13:34:09;96523.22;;;9.61
66180;BMP280;52986;44.028;20.466;2023-12-22T13:36:34;96527.47;;;9.53
66180;BMP280;52986;44.028;20.466;2023-12-22T13:39:02;96530.72;;;9.42
66180;BMP280;52986;44.028;20.466;2023-12-22T13:41:32;96548.81;;;9.32
66180;BMP280;52986;44.028;20.466;2023-12-22T13:44:02;96534.34;;;9.24
66180;BMP280;52986;44.028;20.466;2023-12-22T13:46:29;96540.63;;;9.21
66180;BMP280;52986;44.028;20.466;2023-12-22T13:48:55;96541.06;;;9.20
66180;BMP280;52986;44.028;20.466;2023-12-22T13:51:20;96562.00;;;9.21
66180;BMP280;52986;44.028;20.466;2023-12-22T13:53:49;96560.41;;;9.15
66180;BMP280;52986;44.028;20.466;2023-12-22T13:56:15;96545.41;;;9.17
66180;BMP280;52986;44.028;20.466;2023-12-22T13:58:45;96546.72;;;9.22
66180;BMP280;52986;44.028;20.466;2023-12-22T14:01:17;96548.06;;;9.32
66180;BMP280;52986;44.028;20.466;2023-12-22T14:03:43;96552.19;;;9.33
66180;BMP280;52986;44.028;20.466;2023-12-22T14:06:12;96568.91;;;9.28